Time;durP1;ratioP1;P1;durP2;ratioP2;P2;SDS_P1;SDS_P2;PMS_P1;PMS_P2;Temp;Humidity;BMP_temperature;BMP_pressure;BME280_temperature;BME280_humidity;BME280_pressure;Samples;Min_cycle;Max_cycle;Signal;HPM_P1;HPM_P2
2024/01/09 00:01:45;;;;;;;3.97;0.80;;;32.40;99.90;;;;;;4988623;28;20551;-71
2024/01/09 00:04:13;;;;;;;3.45;0.75;;;32.30;99.90;;;;;;4974861;28;20179;-71
2024/01/09 00:06:40;;;;;;;1.40;0.43;;;32.30;99.90;;;;;;4974406;28;20179;-72
2024/01/09 00:09:08;;;;;;;3.78;1.38;;;32.10;99.90;;;;;;4974444;28;20230;-71
2024/01/09 00:11:35;;;;;;;2.05;0.82;;;32.40;99.90;;;;;;4977428;28;20190;-73
2024/01/09 00:14:02;;;;;;;4.25;0.73;;;32.60;99.90;;;;;;4993572;28;20178;-74
2024/01/09 00:16:30;;;;;;;4.68;0.80;;;32.90;99.90;;;;;;4992943;28;20219;-74
2024/01/09 00:18:57;;;;;;;1.85;0.60;;;32.50;99.90;;;;;;4993239;28;20263;-76
2024/01/09 00:21:24;;;;;;;5.13;0.80;;;32.50;99.90;;;;;;5002499;28;20229;-72
2024/01/09 00:23:52;;;;;;;5.80;1.25;;;32.70;99.90;;;;;;4993712;28;20181;-72
2024/01/09 00:29:41;;;;;;;3.10;0.50;;;34.10;99.90;;;;;;4993253;28;20342;-75
2024/01/09 00:32:08;;;;;;;1.05;0.68;;;34.60;99.90;;;;;;4993392;28;20561;-70
2024/01/09 00:34:36;;;;;;;3.47;0.60;;;34.70;99.90;;;;;;4992170;28;20555;-76
2024/01/09 00:37:03;;;;;;;3.30;1.05;;;33.90;99.90;;;;;;4989770;28;20191;-70
2024/01/09 00:39:30;;;;;;;3.65;0.60;;;33.00;99.90;;;;;;4976063;28;20198;-72
2024/01/09 00:41:58;;;;;;;2.42;0.80;;;33.00;99.90;;;;;;4988941;28;20190;-74
2024/01/09 00:44:25;;;;;;;3.00;0.82;;;33.00;99.90;;;;;;4991033;28;20762;-72
2024/01/09 00:46:52;;;;;;;1.52;0.85;;;33.40;99.90;;;;;;4992641;28;20633;-75
2024/01/09 00:49:20;;;;;;;5.00;0.82;;;33.70;99.90;;;;;;4992879;28;20766;-71
2024/01/09 00:51:47;;;;;;;3.28;0.88;;;33.40;99.90;;;;;;4992404;28;20597;-72
2024/01/09 00:54:15;;;;;;;2.55;0.70;;;33.20;99.90;;;;;;4992911;28;20182;-71
2024/01/09 00:56:42;;;;;;;2.00;0.80;;;33.70;99.90;;;;;;4974764;28;20219;-71
2024/01/09 00:59:09;;;;;;;3.75;0.82;;;33.40;99.90;;;;;;4980009;28;20247;-74
2024/01/09 01:01:37;;;;;;;1.98;0.55;;;33.50;99.90;;;;;;4992576;28;20186;-72
2024/01/09 01:04:04;;;;;;;2.17;0.63;;;33.30;99.90;;;;;;4992725;28;20671;-74
2024/01/09 01:06:41;;;;;;;1.42;0.50;;;33.80;99.90;;;;;;4976261;28;20187;-71
2024/01/09 01:12:30;;;;;;;1.17;0.50;;;33.70;99.90;;;;;;4992293;28;20185;-72
2024/01/09 01:14:57;;;;;;;1.40;0.52;;;33.20;99.90;;;;;;4991422;28;20296;-73
2024/01/09 01:17:24;;;;;;;1.25;0.52;;;33.70;99.90;;;;;;4973090;28;20704;-71
2024/01/09 01:19:52;;;;;;;1.92;0.50;;;33.70;99.90;;;;;;4973111;28;20249;-69
2024/01/09 01:22:19;;;;;;;6.53;1.27;;;33.90;99.90;;;;;;4978714;28;20644;-73
2024/01/09 01:24:46;;;;;;;2.75;0.70;;;33.40;99.90;;;;;;4992404;28;20174;-71
2024/01/09 01:27:14;;;;;;;2.67;0.88;;;33.00;99.90;;;;;;4980946;28;20675;-70
2024/01/09 01:29:41;;;;;;;5.40;0.77;;;32.80;99.90;;;;;;4973110;28;20544;-74
2024/01/09 01:32:10;;;;;;;2.47;0.50;;;33.20;99.90;;;;;;4972984;28;20194;-71
2024/01/09 01:34:38;;;;;;;2.65;0.52;;;33.70;99.90;;;;;;4972741;28;20624;-74
2024/01/09 01:37:05;;;;;;;4.05;0.57;;;34.20;99.90;;;;;;4972958;28;20637;-70
2024/01/09 01:39:33;;;;;;;5.45;1.00;;;34.60;99.90;;;;;;4984095;28;20261;-71
2024/01/09 01:42:00;;;;;;;3.75;0.85;;;34.50;99.90;;;;;;4992315;28;20273;-73
2024/01/09 01:44:27;;;;;;;4.60;0.70;;;34.10;99.90;;;;;;4992004;28;20687;-69
2024/01/09 01:46:55;;;;;;;3.13;0.90;;;33.60;99.90;;;;;;4992416;28;20170;-70
2024/01/09 01:49:23;;;;;;;3.67;0.90;;;33.20;99.90;;;;;;4991989;28;20270;-70
2024/01/09 01:51:52;;;;;;;4.18;0.63;;;32.40;99.90;;;;;;4992077;28;20236;-69
2024/01/09 01:54:20;;;;;;;2.00;0.50;;;31.70;99.90;;;;;;4991965;28;20190;-70
2024/01/09 01:56:48;;;;;;;4.57;0.82;;;31.40;99.90;;;;;;4992152;28;20671;-68
2024/01/09 01:59:17;;;;;;;5.00;0.80;;;31.30;99.90;;;;;;4992220;28;20178;-68
2024/01/09 02:01:46;;;;;;;3.55;0.88;;;32.00;99.90;;;;;;4992095;28;20265;-70
2024/01/09 02:04:16;;;;;;;5.03;0.75;;;32.40;99.90;;;;;;4991829;28;20644;-70
2024/01/09 02:06:43;;;;;;;2.22;0.88;;;33.10;99.90;;;;;;4991996;28;20183;-70
2024/01/09 02:09:11;;;;;;;7.68;1.48;;;33.00;99.90;;;;;;4992298;28;20174;-74
2024/01/09 02:11:39;;;;;;;4.03;1.00;;;32.70;99.90;;;;;;4995808;28;20186;-71
2024/01/09 02:14:06;;;;;;;4.78;0.80;;;33.00;99.90;;;;;;4995881;28;20190;-74
2024/01/09 02:16:34;;;;;;;8.63;1.55;;;33.30;99.90;;;;;;4980541;28;20222;-72
2024/01/09 02:19:01;;;;;;;4.13;0.75;;;33.70;99.90;;;;;;4976442;28;20179;-71
2024/01/09 02:21:29;;;;;;;4.07;0.98;;;34.10;99.90;;;;;;4976372;28;20202;-71
2024/01/09 02:23:56;;;;;;;3.20;1.05;;;33.10;99.90;;;;;;4976305;28;20171;-71
2024/01/09 02:26:35;;;;;;;6.45;1.10;;;32.30;99.90;;;;;;4976295;28;20179;-72
2024/01/09 02:29:07;;;;;;;3.30;0.80;;;31.70;99.90;;;;;;4976341;28;20232;-75
2024/01/09 02:31:35;;;;;;;3.60;1.00;;;30.90;99.90;;;;;;4976214;28;20624;-75
2024/01/09 02:34:07;;;;;;;5.18;0.90;;;30.40;99.90;;;;;;4976080;28;20176;-74
2024/01/09 02:36:34;;;;;;;5.20;1.55;;;30.00;99.90;;;;;;4976128;28;20305;-72
2024/01/09 02:39:02;;;;;;;4.80;0.83;;;30.00;99.90;;;;;;4976219;28;20222;-71
2024/01/09 02:41:29;;;;;;;5.20;1.37;;;29.90;99.90;;;;;;4977137;28;20641;-70
2024/01/09 02:43:56;;;;;;;2.58;0.98;;;29.90;99.90;;;;;;4992042;28;20692;-72
2024/01/09 02:46:24;;;;;;;3.47;0.90;;;29.80;99.90;;;;;;4995333;28;20210;-71
2024/01/09 02:48:51;;;;;;;3.03;0.90;;;29.40;99.90;;;;;;4995174;28;20252;-70
2024/01/09 02:51:19;;;;;;;3.33;1.20;;;28.80;99.90;;;;;;4995337;28;20190;-70
2024/01/09 02:53:47;;;;;;;3.90;0.90;;;28.60;99.90;;;;;;4983339;28;20646;-72
2024/01/09 02:56:15;;;;;;;6.23;1.00;;;28.50;99.90;;;;;;4975608;28;20234;-75
2024/01/09 02:58:42;;;;;;;6.87;1.27;;;28.40;99.90;;;;;;4975857;28;20270;-78
2024/01/09 03:01:10;;;;;;;8.17;1.27;;;28.40;99.90;;;;;;4976766;28;20632;-70
2024/01/09 03:03:37;;;;;;;6.47;0.80;;;28.30;99.90;;;;;;4984624;28;20191;-74
2024/01/09 03:06:05;;;;;;;4.17;1.00;;;27.90;99.90;;;;;;4993128;28;20275;-69
2024/01/09 03:08:33;;;;;;;8.63;1.37;;;27.40;99.90;;;;;;4976864;28;20274;-72
2024/01/09 03:11:01;;;;;;;6.40;1.67;;;27.30;99.90;;;;;;4987822;28;20175;-72
2024/01/09 03:13:28;;;;;;;5.40;1.23;;;27.50;99.90;;;;;;4975737;28;20592;-74
2024/01/09 03:15:56;;;;;;;7.90;1.70;;;27.80;99.90;;;;;;4975426;28;20215;-72
2024/01/09 03:18:24;;;;;;;4.60;1.20;;;27.80;99.90;;;;;;4975230;28;20193;-72
2024/01/09 03:20:51;;;;;;;6.27;1.13;;;27.90;99.90;;;;;;4974555;28;20191;-71
2024/01/09 03:23:19;;;;;;;5.40;1.43;;;27.90;99.90;;;;;;4975064;28;20198;-70
2024/01/09 03:25:47;;;;;;;3.23;1.20;;;27.70;99.90;;;;;;4975149;28;20600;-70
2024/01/09 03:28:14;;;;;;;3.13;0.90;;;27.60;99.90;;;;;;4974910;28;20800;-73
2024/01/09 03:30:43;;;;;;;5.63;1.30;;;27.40;99.90;;;;;;4974962;28;20582;-71
2024/01/09 03:33:11;;;;;;;5.20;0.90;;;27.30;99.90;;;;;;4974778;28;20282;-72
2024/01/09 03:35:39;;;;;;;5.53;1.57;;;27.40;99.90;;;;;;4974915;28;20603;-73
2024/01/09 03:38:06;;;;;;;5.10;1.13;;;27.40;99.90;;;;;;4976085;28;20230;-73
2024/01/09 03:40:35;;;;;;;3.60;1.03;;;27.40;99.90;;;;;;4976100;28;20198;-71
2024/01/09 03:43:06;;;;;;;6.00;1.20;;;27.10;99.90;;;;;;4976112;28;20223;-72
2024/01/09 03:45:34;;;;;;;7.93;1.63;;;27.10;99.90;;;;;;4984464;28;20206;-71
2024/01/09 03:48:01;;;;;;;7.70;1.30;;;27.10;99.90;;;;;;4980807;28;20192;-72
2024/01/09 03:50:29;;;;;;;5.10;1.13;;;27.10;99.90;;;;;;4989441;28;20214;-71
2024/01/09 03:52:56;;;;;;;7.13;1.40;;;27.00;99.90;;;;;;4995307;28;20637;-72
2024/01/09 03:55:25;;;;;;;6.13;1.17;;;27.00;99.90;;;;;;4994071;28;20214;-71
2024/01/09 03:57:53;;;;;;;10.97;1.77;;;27.00;99.90;;;;;;4979031;28;20640;-71
2024/01/09 04:00:20;;;;;;;6.20;1.70;;;27.20;99.90;;;;;;4979292;28;20230;-72
2024/01/09 04:02:48;;;;;;;3.43;1.30;;;27.40;99.90;;;;;;4995329;28;20170;-71
2024/01/09 04:05:16;;;;;;;6.60;1.53;;;27.30;99.90;;;;;;4995341;28;20663;-72
2024/01/09 04:07:43;;;;;;;7.03;1.07;;;27.40;99.90;;;;;;4995549;28;20175;-73
2024/01/09 04:10:11;;;;;;;5.60;1.10;;;27.30;99.90;;;;;;4995256;28;20695;-73
2024/01/09 04:12:39;;;;;;;7.23;1.17;;;27.30;99.90;;;;;;4995210;28;20183;-71
2024/01/09 04:15:07;;;;;;;5.50;1.57;;;27.60;99.90;;;;;;4995273;28;20353;-73
2024/01/09 04:17:35;;;;;;;7.37;1.50;;;28.20;99.90;;;;;;4995564;28;20224;-73
2024/01/09 04:20:04;;;;;;;7.43;1.47;;;28.10;99.90;;;;;;4995376;28;20175;-73
2024/01/09 04:22:32;;;;;;;7.53;1.30;;;28.00;99.90;;;;;;4995280;28;20175;-73
2024/01/09 04:25:00;;;;;;;5.57;1.33;;;27.80;99.90;;;;;;4995156;28;20191;-73
2024/01/09 04:27:27;;;;;;;6.40;1.90;;;27.60;99.90;;;;;;4995281;28;20174;-73
2024/01/09 04:29:55;;;;;;;10.10;1.47;;;27.40;99.90;;;;;;4995074;28;20699;-72
2024/01/09 04:32:23;;;;;;;11.47;2.50;;;27.60;99.90;;;;;;4995031;28;20262;-73
2024/01/09 04:34:50;;;;;;;6.53;1.20;;;27.50;99.90;;;;;;4994732;28;20560;-73
2024/01/09 04:37:22;;;;;;;10.50;1.60;;;28.10;99.90;;;;;;4994979;28;20210;-73
2024/01/09 04:39:49;;;;;;;6.63;1.50;;;28.80;99.90;;;;;;4989460;28;20218;-70
2024/01/09 04:42:17;;;;;;;6.77;1.60;;;29.10;99.90;;;;;;4975916;28;20199;-73
2024/01/09 04:44:45;;;;;;;4.73;1.10;;;28.90;99.90;;;;;;4975056;28;20631;-73
2024/01/09 04:47:15;;;;;;;6.80;1.10;;;28.80;99.90;;;;;;4964194;28;20197;-74
2024/01/09 04:49:44;;;;;;;6.00;1.40;;;29.10;99.90;;;;;;4989358;28;20188;-71
2024/01/09 04:52:12;;;;;;;4.43;1.10;;;29.10;99.90;;;;;;4985581;28;20245;-73
2024/01/09 04:54:40;;;;;;;5.50;1.20;;;29.30;99.90;;;;;;4992875;28;20183;-72
2024/01/09 04:57:07;;;;;;;5.90;1.60;;;29.30;99.90;;;;;;4992949;28;20218;-71
2024/01/09 04:59:35;;;;;;;4.43;1.27;;;29.60;99.90;;;;;;4984634;28;20211;-72
2024/01/09 05:02:03;;;;;;;4.53;1.40;;;28.90;99.90;;;;;;4984091;28;20183;-70
2024/01/09 05:04:31;;;;;;;6.80;1.40;;;28.30;99.90;;;;;;4984879;28;20186;-68
2024/01/09 05:06:59;;;;;;;4.10;1.33;;;28.00;99.90;;;;;;4973323;28;20184;-75
2024/01/09 05:09:28;;;;;;;3.67;1.33;;;27.70;99.90;;;;;;4979733;28;20182;-74
2024/01/09 05:11:55;;;;;;;5.57;1.53;;;28.00;99.90;;;;;;4992805;28;20561;-74
2024/01/09 05:14:23;;;;;;;5.20;1.30;;;28.20;99.90;;;;;;4982093;28;20242;-71
2024/01/09 05:16:51;;;;;;;6.50;1.57;;;28.10;99.90;;;;;;4973180;28;20215;-71
2024/01/09 05:19:18;;;;;;;2.90;1.20;;;28.00;99.90;;;;;;4978276;28;20522;-76
2024/01/09 05:21:47;;;;;;;4.50;0.97;;;27.80;99.90;;;;;;4992454;28;20175;-74
2024/01/09 05:24:15;;;;;;;5.57;1.30;;;27.70;99.90;;;;;;4992447;28;20257;-74
2024/01/09 05:26:42;;;;;;;5.37;1.40;;;27.40;99.90;;;;;;4992878;28;20261;-68
2024/01/09 05:29:10;;;;;;;4.87;1.27;;;27.30;99.90;;;;;;4992315;28;20179;-69
2024/01/09 05:31:47;;;;;;;4.67;1.20;;;27.20;99.90;;;;;;4992017;28;20237;-74
2024/01/09 05:34:14;;;;;;;7.03;1.30;;;27.80;99.90;;;;;;4992414;28;20182;-69
2024/01/09 05:36:42;;;;;;;6.60;1.50;;;27.90;99.90;;;;;;4992162;28;20667;-74
2024/01/09 05:39:10;;;;;;;7.20;1.63;;;27.70;99.90;;;;;;4992272;28;20218;-69
2024/01/09 05:41:39;;;;;;;7.33;1.47;;;27.30;99.90;;;;;;4992147;28;20344;-72
2024/01/09 05:44:07;;;;;;;6.73;1.40;;;27.30;99.90;;;;;;4991709;28;20226;-71
2024/01/09 05:46:35;;;;;;;3.33;1.43;;;27.20;99.90;;;;;;4992487;28;20224;-74
2024/01/09 05:49:04;;;;;;;7.10;1.37;;;27.10;99.90;;;;;;4992158;28;20257;-69
2024/01/09 05:51:32;;;;;;;6.37;1.50;;;27.10;99.90;;;;;;4993338;28;20224;-72
2024/01/09 05:54:00;;;;;;;8.93;1.60;;;27.10;99.90;;;;;;4993500;28;20715;-73
2024/01/09 05:56:27;;;;;;;6.00;1.10;;;27.10;99.90;;;;;;4971518;28;20219;-69
2024/01/09 05:58:55;;;;;;;7.90;1.40;;;27.00;99.90;;;;;;4991997;28;20228;-73
2024/01/09 06:01:23;;;;;;;8.23;1.30;;;26.90;99.90;;;;;;4992026;28;20182;-70
2024/01/09 06:03:51;;;;;;;4.40;1.33;;;26.90;99.90;;;;;;4992055;28;20175;-71
2024/01/09 06:06:19;;;;;;;3.43;1.27;;;26.60;99.90;;;;;;4991732;28;20194;-69
2024/01/09 06:08:48;;;;;;;7.83;1.73;;;26.60;99.90;;;;;;4992001;28;20185;-70
2024/01/09 06:11:16;;;;;;;4.53;1.43;;;26.60;99.90;;;;;;4991794;28;20178;-72
2024/01/09 06:13:44;;;;;;;8.80;1.60;;;26.50;99.90;;;;;;4991976;28;20175;-69
2024/01/09 06:16:12;;;;;;;8.37;1.67;;;26.50;99.90;;;;;;4991534;28;20706;-68
2024/01/09 06:18:40;;;;;;;4.40;1.50;;;26.50;99.90;;;;;;4991814;28;20194;-71
2024/01/09 06:21:07;;;;;;;6.50;1.37;;;26.50;99.90;;;;;;4991500;28;20554;-74
2024/01/09 06:23:35;;;;;;;4.57;1.10;;;26.40;99.90;;;;;;4991877;28;20182;-72
2024/01/09 06:26:03;;;;;;;4.50;1.30;;;26.40;99.90;;;;;;4991837;28;20229;-69
2024/01/09 06:28:33;;;;;;;6.50;1.47;;;26.40;99.90;;;;;;4991840;28;20197;-74
2024/01/09 06:31:01;;;;;;;5.93;1.30;;;26.50;99.90;;;;;;4991735;28;20194;-71
2024/01/09 06:33:29;;;;;;;4.67;1.40;;;26.50;99.90;;;;;;4991677;28;20175;-69
2024/01/09 06:35:56;;;;;;;6.73;1.47;;;26.30;99.90;;;;;;4991881;28;20262;-72
2024/01/09 06:38:24;;;;;;;11.37;2.23;;;26.30;99.90;;;;;;4986720;28;20228;-69
2024/01/09 06:40:52;;;;;;;5.33;1.50;;;26.20;99.90;;;;;;4972799;28;20198;-73
2024/01/09 06:43:19;;;;;;;10.63;1.73;;;26.30;99.90;;;;;;4978043;28;20227;-72
2024/01/09 06:45:47;;;;;;;9.53;1.50;;;26.30;99.90;;;;;;4991780;28;20281;-72
2024/01/09 06:48:15;;;;;;;4.77;1.70;;;26.30;99.90;;;;;;4991501;28;20183;-69
2024/01/09 06:50:43;;;;;;;12.23;1.77;;;26.20;99.90;;;;;;4989934;28;20191;-71
2024/01/09 06:53:11;;;;;;;5.30;1.47;;;26.20;99.90;;;;;;4981150;28;20226;-72
2024/01/09 06:55:38;;;;;;;8.80;1.87;;;26.10;99.90;;;;;;4974564;28;20715;-72
2024/01/09 06:58:06;;;;;;;4.60;1.40;;;25.90;99.90;;;;;;4977127;28;20175;-72
2024/01/09 07:00:34;;;;;;;8.10;1.60;;;25.80;99.90;;;;;;4977230;28;20178;-72
2024/01/09 07:03:02;;;;;;;4.83;1.30;;;25.80;99.90;;;;;;4976963;28;20175;-68
2024/01/09 07:05:30;;;;;;;6.23;1.30;;;25.80;99.90;;;;;;4977196;28;20195;-72
2024/01/09 07:07:57;;;;;;;8.90;1.73;;;25.70;99.90;;;;;;4977183;28;20171;-67
2024/01/09 07:10:25;;;;;;;6.87;1.43;;;25.60;99.90;;;;;;4975837;28;20187;-71
2024/01/09 07:12:52;;;;;;;6.40;1.60;;;25.50;99.90;;;;;;4975711;28;20314;-71
2024/01/09 07:15:20;;;;;;;9.50;1.60;;;25.50;99.90;;;;;;4977071;28;20247;-71
2024/01/09 07:17:48;;;;;;;5.43;1.27;;;25.40;99.90;;;;;;4976940;28;20180;-72
2024/01/09 07:20:16;;;;;;;6.20;1.43;;;25.20;99.90;;;;;;4977000;28;20187;-68
2024/01/09 07:22:44;;;;;;;5.40;1.73;;;25.10;99.90;;;;;;4976977;28;20667;-69
2024/01/09 07:25:13;;;;;;;9.27;1.87;;;25.10;99.90;;;;;;4976983;28;20180;-72
2024/01/09 07:27:41;;;;;;;9.17;1.73;;;25.10;99.90;;;;;;4976687;28;20199;-72
2024/01/09 07:30:10;;;;;;;7.20;1.33;;;25.00;99.90;;;;;;4976834;28;20194;-71
2024/01/09 07:32:37;;;;;;;9.30;2.33;;;25.00;99.90;;;;;;4975347;28;20268;-68
2024/01/09 07:35:07;;;;;;;8.13;1.67;;;25.00;99.90;;;;;;4976674;28;20175;-71
2024/01/09 07:37:34;;;;;;;4.90;1.63;;;25.10;99.90;;;;;;4981208;28;20210;-72
2024/01/09 07:40:04;;;;;;;5.87;1.47;;;25.00;99.90;;;;;;4983049;28;20175;-68
2024/01/09 07:42:32;;;;;;;4.53;1.33;;;24.90;99.90;;;;;;4968735;28;20206;-72
2024/01/09 07:45:00;;;;;;;7.10;1.50;;;24.80;99.90;;;;;;4982311;28;20277;-67
2024/01/09 07:47:28;;;;;;;4.70;1.27;;;24.80;99.90;;;;;;4992387;28;20293;-69
2024/01/09 07:49:55;;;;;;;7.13;1.67;;;24.70;99.90;;;;;;4989957;28;20718;-69
2024/01/09 07:52:23;;;;;;;5.67;1.50;;;24.70;99.90;;;;;;4980535;28;20547;-69
2024/01/09 07:54:51;;;;;;;10.23;2.00;;;24.50;99.90;;;;;;4974525;28;20234;-71
2024/01/09 07:57:19;;;;;;;7.27;1.57;;;24.40;99.90;;;;;;4974783;28;20267;-69
2024/01/09 07:59:47;;;;;;;5.53;1.53;;;24.40;99.90;;;;;;4988789;28;20237;-72
2024/01/09 08:02:14;;;;;;;4.83;1.50;;;24.40;99.90;;;;;;4979317;28;20183;-68
2024/01/09 08:04:42;;;;;;;4.37;1.30;;;24.40;99.90;;;;;;4978202;28;20269;-69
2024/01/09 08:07:09;;;;;;;8.53;1.20;;;24.40;99.90;;;;;;4978663;28;20218;-68
2024/01/09 08:09:38;;;;;;;11.40;2.23;;;24.20;99.90;;;;;;4974189;28;20187;-70
2024/01/09 08:12:05;;;;;;;7.50;1.67;;;24.20;99.90;;;;;;4979444;28;20182;-68
2024/01/09 08:14:33;;;;;;;7.37;2.20;;;24.20;99.90;;;;;;4994898;28;20213;-68
2024/01/09 08:17:01;;;;;;;5.87;1.57;;;24.20;99.90;;;;;;4995090;28;20750;-68
2024/01/09 08:19:28;;;;;;;9.20;1.80;;;24.20;99.90;;;;;;4995024;28;20178;-73
2024/01/09 08:21:56;;;;;;;9.77;1.60;;;24.20;99.90;;;;;;4993798;28;20194;-72
2024/01/09 08:24:24;;;;;;;8.90;1.63;;;24.20;99.90;;;;;;4994980;28;20185;-72
2024/01/09 08:26:52;;;;;;;7.80;1.60;;;24.20;99.90;;;;;;4994954;28;20205;-71
2024/01/09 08:29:20;;;;;;;4.50;1.70;;;24.20;99.90;;;;;;4994896;28;20232;-70
2024/01/09 08:31:49;;;;;;;8.40;1.97;;;24.10;99.90;;;;;;4994798;28;20171;-73
2024/01/09 08:34:16;;;;;;;5.13;1.57;;;24.10;99.90;;;;;;4994829;28;20167;-70
2024/01/09 08:36:45;;;;;;;7.70;1.60;;;24.10;99.90;;;;;;4994743;28;20317;-69
2024/01/09 08:39:16;;;;;;;8.63;2.07;;;24.10;99.90;;;;;;4995022;28;20179;-70
2024/01/09 08:41:43;;;;;;;5.83;1.77;;;24.10;99.90;;;;;;4994937;28;20671;-67
2024/01/09 08:44:11;;;;;;;7.10;1.90;;;24.10;99.90;;;;;;4994597;28;20226;-69
2024/01/09 08:46:39;;;;;;;8.53;2.17;;;24.10;99.90;;;;;;4994679;28;20178;-67
2024/01/09 08:49:07;;;;;;;7.97;2.03;;;24.10;99.90;;;;;;4994783;28;20174;-68
2024/01/09 08:51:35;;;;;;;7.57;1.90;;;24.10;99.90;;;;;;4994588;28;20181;-71
2024/01/09 08:54:03;;;;;;;5.20;1.30;;;24.10;99.90;;;;;;4994566;28;20186;-68
2024/01/09 08:56:31;;;;;;;3.97;1.40;;;24.20;99.90;;;;;;4994366;28;20222;-68
2024/01/09 08:58:58;;;;;;;7.77;2.13;;;24.20;99.90;;;;;;4994562;28;20602;-67
2024/01/09 09:01:26;;;;;;;6.43;1.83;;;24.20;99.90;;;;;;4994409;28;20214;-68
2024/01/09 09:03:54;;;;;;;8.73;1.70;;;24.10;99.90;;;;;;4994388;28;20246;-67
2024/01/09 09:06:22;;;;;;;3.70;1.50;;;24.10;99.90;;;;;;4994734;28;20179;-68
2024/01/09 09:08:49;;;;;;;12.63;2.07;;;24.10;99.90;;;;;;4994452;28;20191;-68
2024/01/09 09:11:17;;;;;;;6.70;1.67;;;24.10;99.90;;;;;;4995357;28;20321;-68
2024/01/09 09:13:45;;;;;;;7.13;1.70;;;24.00;99.90;;;;;;4994428;28;20189;-68
2024/01/09 09:16:16;;;;;;;6.37;2.07;;;23.90;99.90;;;;;;4994053;28;20225;-68
2024/01/09 09:18:44;;;;;;;6.83;1.70;;;23.90;99.90;;;;;;4998329;28;20190;-71
2024/01/09 09:21:12;;;;;;;4.73;1.67;;;23.80;99.90;;;;;;4995531;28;20175;-70
2024/01/09 09:23:40;;;;;;;7.47;1.43;;;23.80;99.90;;;;;;4994184;28;20664;-71
2024/01/09 09:26:08;;;;;;;7.23;1.43;;;23.70;99.90;;;;;;4994066;28;20178;-68
2024/01/09 09:28:35;;;;;;;4.93;1.30;;;23.70;99.90;;;;;;4993970;28;20183;-68
2024/01/09 09:31:03;;;;;;;7.93;2.03;;;23.70;99.90;;;;;;4993849;28;20652;-69
2024/01/09 09:33:33;;;;;;;7.23;1.90;;;23.70;99.90;;;;;;4992498;28;20652;-68
2024/01/09 09:36:08;;;;;;;8.40;1.63;;;23.70;99.90;;;;;;4994001;28;20210;-69
2024/01/09 09:38:36;;;;;;;7.73;1.80;;;23.70;99.90;;;;;;4994030;28;20662;-69
2024/01/09 09:41:07;;;;;;;5.30;1.63;;;23.70;99.90;;;;;;4994168;28;20274;-72
2024/01/09 09:43:36;;;;;;;9.47;1.90;;;23.70;99.90;;;;;;4981187;28;20663;-69
2024/01/09 09:46:05;;;;;;;7.27;1.70;;;23.70;99.90;;;;;;4977404;28;20232;-72
2024/01/09 09:48:33;;;;;;;7.90;1.90;;;23.70;99.90;;;;;;4978620;28;20186;-68
2024/01/09 09:51:01;;;;;;;6.33;2.00;;;23.70;99.90;;;;;;4993963;28;20174;-71
2024/01/09 09:53:31;;;;;;;9.50;2.00;;;23.70;99.90;;;;;;4987158;28;20183;-66
2024/01/09 09:55:59;;;;;;;9.03;2.17;;;23.60;99.90;;;;;;4983689;28;20221;-68
2024/01/09 09:58:27;;;;;;;11.67;2.30;;;23.60;99.90;;;;;;4982545;28;20544;-68
2024/01/09 10:00:59;;;;;;;10.50;2.13;;;23.60;99.90;;;;;;4983815;28;20190;-71
2024/01/09 10:03:32;;;;;;;9.33;1.57;;;23.60;99.90;;;;;;4984475;28;20248;-71
2024/01/09 10:06:08;;;;;;;6.80;1.43;;;23.50;99.90;;;;;;4986653;28;20210;-68
2024/01/09 10:08:36;;;;;;;10.77;2.00;;;23.50;99.90;;;;;;4993734;28;20174;-68
2024/01/09 10:11:04;;;;;;;10.60;2.00;;;23.50;99.90;;;;;;4993464;28;20189;-68
2024/01/09 10:13:32;;;;;;;10.10;2.23;;;23.50;99.90;;;;;;4993656;28;20194;-68
2024/01/09 10:16:03;;;;;;;12.27;2.20;;;23.50;99.90;;;;;;4993489;28;20218;-68
2024/01/09 10:18:32;;;;;;;10.30;1.80;;;23.40;99.90;;;;;;4993602;28;20190;-68
2024/01/09 10:21:00;;;;;;;6.47;2.30;;;23.40;99.90;;;;;;4993606;28;20174;-68
2024/01/09 10:23:28;;;;;;;13.07;2.43;;;23.50;99.90;;;;;;4993708;28;20193;-69
2024/01/09 10:25:56;;;;;;;11.43;2.50;;;23.50;99.90;;;;;;4993686;28;20539;-71
2024/01/09 10:28:24;;;;;;;15.13;2.00;;;23.50;99.90;;;;;;4993572;28;20183;-68
2024/01/09 10:30:55;;;;;;;9.70;2.13;;;23.50;99.90;;;;;;4994716;28;20519;-68
2024/01/09 10:33:23;;;;;;;7.33;1.80;;;23.50;99.90;;;;;;4997334;28;20187;-71
2024/01/09 10:35:50;;;;;;;12.80;2.70;;;23.50;99.90;;;;;;4997215;28;20225;-69
2024/01/09 10:38:25;;;;;;;6.10;2.00;;;23.40;99.90;;;;;;4997399;28;20202;-71
2024/01/09 10:40:56;;;;;;;14.90;2.00;;;23.50;99.90;;;;;;4997293;28;20269;-72
2024/01/09 10:43:26;;;;;;;10.93;1.90;;;23.50;99.90;;;;;;4996721;28;20285;-71
2024/01/09 10:45:54;;;;;;;11.43;2.13;;;23.50;99.90;;;;;;4996945;28;20274;-69
2024/01/09 10:48:22;;;;;;;6.17;2.23;;;23.50;99.90;;;;;;4997228;28;20312;-72
2024/01/09 10:50:52;;;;;;;8.27;1.83;;;23.50;99.90;;;;;;4997008;28;20238;-71
2024/01/09 10:53:26;;;;;;;13.63;2.90;;;23.40;99.90;;;;;;4996973;28;20241;-69
2024/01/09 10:55:56;;;;;;;13.37;2.73;;;23.40;99.90;;;;;;4996852;28;20646;-72
2024/01/09 10:58:25;;;;;;;12.97;2.73;;;23.40;99.90;;;;;;4996919;28;20179;-72
2024/01/09 11:00:53;;;;;;;9.87;1.93;;;23.30;99.90;;;;;;4996845;28;20174;-72
2024/01/09 11:03:20;;;;;;;12.00;2.57;;;23.30;99.90;;;;;;4996778;28;20174;-71
2024/01/09 11:05:54;;;;;;;9.80;2.10;;;23.20;99.90;;;;;;4996917;28;20186;-69
2024/01/09 11:08:23;;;;;;;7.43;1.83;;;23.20;99.90;;;;;;4996956;28;20206;-71
2024/01/09 11:10:52;;;;;;;8.13;2.40;;;23.20;99.90;;;;;;4996552;28;20660;-69
2024/01/09 11:13:22;;;;;;;11.23;2.63;;;23.20;99.90;;;;;;4996635;28;20258;-69
2024/01/09 11:15:54;;;;;;;9.00;1.80;;;23.10;99.90;;;;;;4996691;28;20304;-69
2024/01/09 11:18:23;;;;;;;8.73;2.17;;;23.10;99.90;;;;;;4996712;28;20229;-71
2024/01/09 11:21:01;;;;;;;12.80;1.80;;;23.10;99.90;;;;;;4996611;28;20179;-71
2024/01/09 11:23:52;;;;;;;10.43;2.90;;;23.10;99.90;;;;;;4996348;28;20182;-71
2024/01/09 11:26:21;;;;;;;8.53;2.13;;;23.20;99.90;;;;;;4996719;28;20190;-71
2024/01/09 11:28:49;;;;;;;9.33;2.53;;;23.10;99.90;;;;;;4996191;28;20221;-68
2024/01/09 11:31:20;;;;;;;7.93;1.73;;;23.20;99.90;;;;;;4996139;28;20177;-71
2024/01/09 11:33:51;;;;;;;9.33;2.07;;;23.20;99.90;;;;;;4996095;28;20649;-72
2024/01/09 11:36:33;;;;;;;10.83;2.43;;;23.20;99.90;;;;;;4989774;28;20219;-69
2024/01/09 11:39:01;;;;;;;10.10;2.27;;;23.10;99.90;;;;;;4991729;28;20207;-71
2024/01/09 11:41:37;;;;;;;10.23;1.87;;;23.00;99.90;;;;;;4996007;28;20177;-71
2024/01/09 11:44:15;;;;;;;11.23;2.20;;;23.10;99.90;;;;;;4994133;28;20222;-69
2024/01/09 11:46:43;;;;;;;7.00;2.20;;;23.00;99.90;;;;;;4976678;28;20699;-72
2024/01/09 11:49:10;;;;;;;9.57;2.80;;;22.90;99.90;;;;;;4976589;28;20194;-73
2024/01/09 11:51:38;;;;;;;10.67;2.10;;;22.90;99.90;;;;;;4976257;28;20237;-71
2024/01/09 11:54:08;;;;;;;10.97;2.70;;;22.90;99.90;;;;;;4976450;28;20175;-71
2024/01/09 11:56:36;;;;;;;9.73;2.47;;;22.90;99.90;;;;;;4976359;28;20556;-71
2024/01/09 11:59:04;;;;;;;10.60;2.17;;;22.80;99.90;;;;;;4976327;28;20185;-71
2024/01/09 12:01:32;;;;;;;9.07;2.27;;;22.90;99.90;;;;;;4976240;28;20201;-71
2024/01/09 12:04:00;;;;;;;9.57;2.13;;;22.80;99.90;;;;;;4983906;28;20296;-68
2024/01/09 12:06:29;;;;;;;10.27;2.10;;;22.90;99.90;;;;;;4995208;28;20181;-68
2024/01/09 12:08:57;;;;;;;9.07;2.33;;;22.80;99.90;;;;;;4976007;28;20195;-70
2024/01/09 12:11:24;;;;;;;8.47;2.03;;;22.70;99.90;;;;;;4987970;28;20266;-68
2024/01/09 12:14:03;;;;;;;11.43;2.47;;;22.70;99.90;;;;;;4985629;28;20277;-71
2024/01/09 12:16:31;;;;;;;12.70;2.50;;;22.60;99.90;;;;;;4993018;28;20706;-70
2024/01/09 12:19:00;;;;;;;9.17;2.17;;;22.60;99.90;;;;;;4975867;28;20187;-71
2024/01/09 12:21:32;;;;;;;9.23;2.27;;;22.60;99.90;;;;;;4976132;28;20194;-71
2024/01/09 12:24:03;;;;;;;7.40;2.03;;;22.60;99.90;;;;;;4975921;28;20190;-72
2024/01/09 12:26:33;;;;;;;9.73;2.67;;;22.50;99.90;;;;;;4975929;28;20190;-71
2024/01/09 12:29:01;;;;;;;9.20;2.43;;;22.60;99.90;;;;;;4980507;28;20189;-71
2024/01/09 12:31:29;;;;;;;9.97;2.07;;;22.60;99.90;;;;;;4995225;28;20241;-71
2024/01/09 12:33:57;;;;;;;10.37;2.57;;;22.60;99.90;;;;;;4994883;28;20210;-72
2024/01/09 12:36:27;;;;;;;7.53;1.90;;;22.60;99.90;;;;;;4994390;28;20257;-71
2024/01/09 12:38:56;;;;;;;8.50;2.50;;;22.70;99.90;;;;;;4994491;28;20186;-71
2024/01/09 12:41:24;;;;;;;9.20;1.90;;;22.70;99.90;;;;;;4994403;28;20226;-70
2024/01/09 12:43:52;;;;;;;7.90;2.13;;;22.70;99.90;;;;;;4994767;28;20594;-71
2024/01/09 12:46:21;;;;;;;13.50;2.27;;;22.70;99.90;;;;;;4985472;28;20662;-71
2024/01/09 12:48:50;;;;;;;6.50;2.10;;;22.80;99.90;;;;;;4975459;28;20197;-71
2024/01/09 12:51:18;;;;;;;16.73;3.00;;;22.80;99.90;;;;;;4975203;28;20198;-71
2024/01/09 12:53:47;;;;;;;10.60;2.03;;;22.80;99.90;;;;;;4975031;28;20194;-71
2024/01/09 12:56:15;;;;;;;11.60;2.30;;;22.90;99.90;;;;;;4975195;28;20301;-72
2024/01/09 12:58:47;;;;;;;11.87;1.97;;;22.90;99.90;;;;;;4975126;28;20230;-72